Portada
METAR-TAF:

METAR-TAF

Aeropuertos :

Montichiari

Brescia, Italia

latitud: 45-24-02N, longitud: 010-18-59E, altitud: 104 m

Observación

El informe se hizo hace 29 minutos, a las 13:20 UTC
Viento 10 kt del oeste-suroeste con ráfagas de 22 kt, variando entre sur-suroeste y oeste
Temperatura 16°C
Humedad 55%
Presión 1015 hPa
Visibilidad 10 km o más

METAR: LIPO 051320Z AUTO 24010G22KT 210V270 9999 NCD 16/07 Q1015

Hora: 14:49 (13:49 UTC)

Pronóstico

El informe se hizo hace 2 horas y 49 minutos, a las 11:00 UTC
Pronóstico válido del 05 a las 12 UTC al 06 a las 12 UTC
Viento 4 kt con dirección variable
Visibilidad: 9000 m
Temporalmente
del 05 a las 23 UTC al 06 a las 05 UTC
Visibilidad: 4000 m
Cielo nuboso a una altura de 1400 ft
Cielo nuboso a una altura de 3000 ft
chaparrones de lluvia

TAF: LIPO 051100Z 0512/0612 VRB04KT 9000 NSC TEMPO 0523/0605 4000 SHRA BKN014 BKN030

Observaciones y pronósticos meteorológicos de más de 4000 aeropuertos (mensajes METAR y TAF).

Los puntos amarillos y rojos representan las estaciones disponibles.

Ponga el ratón en el punto deseado para ver el nombre de la estación.

Haga clic para ver las observaciones y los pronósticos meteorológicos.

Para cambiar el mapa : haga clic en los botones verdes con una cruz de color negro para hacer un zoom, en el botón verde con un guión para alejar o en las flechas verdes para mapas adyacentes.


METAR-TAF: